createdAt,value
2023-12-10T00:01:55.941Z,6.40
2023-12-10T00:04:25.467Z,6.40
2023-12-10T00:06:54.042Z,6.50
2023-12-10T00:09:20.840Z,6.50
2023-12-10T00:11:47.580Z,6.60
2023-12-10T00:14:14.346Z,6.60
2023-12-10T00:16:41.069Z,6.70
2023-12-10T00:19:07.863Z,6.70
2023-12-10T00:21:34.848Z,6.80
2023-12-10T00:24:01.628Z,6.90
2023-12-10T00:26:28.409Z,6.90
2023-12-10T00:28:55.137Z,7.00
2023-12-10T00:31:21.861Z,7.10
2023-12-10T00:33:49.085Z,7.10
2023-12-10T00:36:16.499Z,7.20
2023-12-10T00:38:43.588Z,7.30
2023-12-10T00:41:11.999Z,7.40
2023-12-10T00:43:42.529Z,7.40
2023-12-10T00:46:10.014Z,7.50
2023-12-10T00:48:38.608Z,7.60
2023-12-10T00:51:05.580Z,7.60
2023-12-10T00:53:32.352Z,7.70
2023-12-10T00:55:59.188Z,7.80
2023-12-10T00:58:25.920Z,7.80
2023-12-10T01:00:52.811Z,7.90
2023-12-10T01:03:19.723Z,7.90
2023-12-10T01:05:46.494Z,8.00
2023-12-10T01:08:13.275Z,8.00
2023-12-10T01:10:40.003Z,8.00
2023-12-10T01:13:06.728Z,8.00
2023-12-10T01:15:33.520Z,8.10
2023-12-10T01:18:03.965Z,8.10
2023-12-10T01:20:34.810Z,8.10
2023-12-10T01:23:08.778Z,8.10
2023-12-10T01:25:35.985Z,8.20
2023-12-10T01:28:03.165Z,8.20
2023-12-10T01:30:30.593Z,8.20
2023-12-10T01:33:01.154Z,8.20
2023-12-10T01:35:28.567Z,8.20
2023-12-10T01:37:55.644Z,8.20
2023-12-10T01:40:22.563Z,8.20
2023-12-10T01:42:49.715Z,8.20
2023-12-10T01:45:17.789Z,8.10
2023-12-10T01:47:46.770Z,8.10
2023-12-10T01:50:14.495Z,8.20
2023-12-10T01:52:42.664Z,8.20
2023-12-10T01:55:10.893Z,8.20
2023-12-10T01:57:38.235Z,8.20
2023-12-10T02:00:07.203Z,8.20
2023-12-10T02:02:35.066Z,8.20
2023-12-10T02:05:11.279Z,8.20
2023-12-10T02:07:38.763Z,8.20
2023-12-10T02:10:07.191Z,8.20
2023-12-10T02:12:36.135Z,8.20
2023-12-10T02:15:19.484Z,8.20
2023-12-10T02:17:47.849Z,8.10
2023-12-10T02:20:15.754Z,8.20
2023-12-10T02:23:05.406Z,8.20
2023-12-10T02:25:36.854Z,8.20
2023-12-10T02:28:04.692Z,8.20
2023-12-10T02:30:31.926Z,8.20
2023-12-10T02:32:59.080Z,8.20
2023-12-10T02:35:27.427Z,8.20
2023-12-10T02:37:54.836Z,8.20
2023-12-10T02:40:21.833Z,8.20
2023-12-10T02:42:49.157Z,8.20
2023-12-10T02:45:16.493Z,8.10
2023-12-10T02:47:43.615Z,8.10
2023-12-10T02:50:10.571Z,8.00
2023-12-10T02:52:38.022Z,8.00
2023-12-10T02:55:05.883Z,8.00
2023-12-10T02:57:32.787Z,8.00
2023-12-10T03:00:00.056Z,8.00
2023-12-10T03:02:27.032Z,8.00
2023-12-10T03:04:54.346Z,8.00
2023-12-10T03:07:21.225Z,8.00
2023-12-10T03:09:48.023Z,8.00
2023-12-10T03:12:14.998Z,8.00
2023-12-10T03:14:41.891Z,8.00
2023-12-10T03:17:08.608Z,8.00
2023-12-10T03:19:35.598Z,8.00
2023-12-10T03:22:02.390Z,8.00
2023-12-10T03:24:29.132Z,8.00
2023-12-10T03:26:55.872Z,8.00
2023-12-10T03:29:22.637Z,8.00
2023-12-10T03:31:49.410Z,8.00
2023-12-10T03:34:16.347Z,8.00
2023-12-10T03:36:43.160Z,8.00
2023-12-10T03:39:09.998Z,8.00
2023-12-10T03:41:36.733Z,8.00
2023-12-10T03:44:03.463Z,8.00
2023-12-10T03:46:30.246Z,8.00
2023-12-10T03:48:57.163Z,8.00
2023-12-10T03:51:24.036Z,8.00
2023-12-10T03:53:51.674Z,8.00
2023-12-10T03:56:18.382Z,8.00
2023-12-10T03:58:45.112Z,8.00
2023-12-10T04:01:11.899Z,8.00
2023-12-10T04:03:38.987Z,8.00
2023-12-10T04:06:06.072Z,7.90
2023-12-10T04:08:32.800Z,7.90
2023-12-10T04:10:59.867Z,7.90
2023-12-10T04:13:26.614Z,7.90
2023-12-10T04:15:53.339Z,7.90
2023-12-10T04:18:20.210Z,7.90
2023-12-10T04:20:47.120Z,7.90
2023-12-10T04:23:13.925Z,8.00
2023-12-10T04:25:40.660Z,7.90
2023-12-10T04:28:08.249Z,8.00
2023-12-10T04:30:35.324Z,8.00
2023-12-10T04:33:02.324Z,8.00
2023-12-10T04:35:29.105Z,8.00
2023-12-10T04:37:55.839Z,8.10
2023-12-10T04:40:23.506Z,8.10
2023-12-10T04:42:50.440Z,8.10
2023-12-10T04:45:18.172Z,8.10
2023-12-10T04:47:45.117Z,8.10
2023-12-10T04:50:12.435Z,8.10
2023-12-10T04:52:39.182Z,8.20
2023-12-10T04:55:06.361Z,8.10
2023-12-10T04:57:33.133Z,8.20
2023-12-10T04:59:59.861Z,8.20
2023-12-10T05:02:26.812Z,8.20
2023-12-10T05:04:53.652Z,8.20
2023-12-10T05:07:20.738Z,8.20
2023-12-10T05:09:47.577Z,8.20
2023-12-10T05:12:14.423Z,8.30
2023-12-10T05:14:41.212Z,8.30
2023-12-10T05:17:07.913Z,8.30
2023-12-10T05:19:34.822Z,8.20
2023-12-10T05:22:01.700Z,8.20
2023-12-10T05:24:28.603Z,8.20
2023-12-10T05:26:55.367Z,8.20
2023-12-10T05:29:22.175Z,8.10
2023-12-10T05:31:48.994Z,8.00
2023-12-10T05:34:15.796Z,8.00
2023-12-10T05:36:42.614Z,7.90
2023-12-10T05:39:09.648Z,7.90
2023-12-10T05:41:36.436Z,7.90
2023-12-10T05:44:03.439Z,7.80
2023-12-10T05:46:30.173Z,7.80
2023-12-10T05:48:57.199Z,7.80
2023-12-10T05:51:24.029Z,7.80
2023-12-10T05:53:52.302Z,7.90
2023-12-10T05:56:19.159Z,7.90
2023-12-10T05:58:46.239Z,7.90
2023-12-10T06:01:13.028Z,7.90
2023-12-10T06:03:39.865Z,7.90
2023-12-10T06:06:07.005Z,7.90
2023-12-10T06:08:33.785Z,7.90
2023-12-10T06:11:00.860Z,7.90
2023-12-10T06:13:28.339Z,7.90
2023-12-10T06:15:58.894Z,7.90
2023-12-10T06:18:25.937Z,7.90
2023-12-10T06:20:52.717Z,8.00
2023-12-10T06:23:19.495Z,7.90
2023-12-10T06:25:46.202Z,8.00
2023-12-10T06:28:13.613Z,8.00
2023-12-10T06:30:40.478Z,8.00
2023-12-10T06:33:07.321Z,7.90
2023-12-10T06:35:34.195Z,8.00
2023-12-10T06:38:00.952Z,8.00
2023-12-10T06:40:27.679Z,8.00
2023-12-10T06:42:54.421Z,8.00
2023-12-10T06:45:21.341Z,8.00
2023-12-10T06:47:48.199Z,8.00
2023-12-10T06:50:14.991Z,8.00
2023-12-10T06:52:41.728Z,8.00
2023-12-10T06:55:09.012Z,8.00
2023-12-10T06:57:35.857Z,7.90
2023-12-10T07:00:02.820Z,7.90
2023-12-10T07:02:30.156Z,7.90
2023-12-10T07:04:57.127Z,7.90
2023-12-10T07:07:23.860Z,7.90
2023-12-10T07:09:50.691Z,7.90
2023-12-10T07:12:17.496Z,7.90
2023-12-10T07:14:44.307Z,7.90
2023-12-10T07:17:11.039Z,7.90
2023-12-10T07:19:37.941Z,7.90
2023-12-10T07:22:04.838Z,7.90
2023-12-10T07:24:32.714Z,8.00
2023-12-10T07:26:59.619Z,8.00
2023-12-10T07:29:27.247Z,8.00
2023-12-10T07:31:54.001Z,8.00
2023-12-10T07:34:21.482Z,8.00
2023-12-10T07:36:48.317Z,8.00
2023-12-10T07:39:15.217Z,8.00
2023-12-10T07:41:42.566Z,8.10
2023-12-10T07:44:09.305Z,8.10
2023-12-10T07:46:36.038Z,8.10
2023-12-10T07:49:02.869Z,8.10
2023-12-10T07:51:29.737Z,8.20
2023-12-10T07:53:56.435Z,8.20
2023-12-10T07:56:23.214Z,8.20
2023-12-10T07:58:49.972Z,8.30
2023-12-10T08:01:16.904Z,8.30
2023-12-10T08:03:43.820Z,8.40
2023-12-10T08:06:10.581Z,8.40
2023-12-10T08:08:37.331Z,8.40
2023-12-10T08:11:06.652Z,8.40
2023-12-10T08:13:33.585Z,8.40
2023-12-10T08:16:00.446Z,8.50
2023-12-10T08:18:27.363Z,8.50
2023-12-10T08:20:55.373Z,8.60
2023-12-10T08:23:22.107Z,8.70
2023-12-10T08:25:48.869Z,8.60
2023-12-10T08:28:15.785Z,8.60
2023-12-10T08:30:42.573Z,8.70
2023-12-10T08:33:09.503Z,8.60
2023-12-10T08:35:36.288Z,8.60
2023-12-10T08:38:03.017Z,8.70
2023-12-10T08:40:29.779Z,8.70
2023-12-10T08:42:56.545Z,8.70
2023-12-10T08:45:23.696Z,8.70
2023-12-10T08:47:50.574Z,8.80
2023-12-10T08:50:17.716Z,8.80
2023-12-10T08:52:44.439Z,8.80
2023-12-10T08:55:11.306Z,8.80
2023-12-10T08:57:38.161Z,8.80
2023-12-10T09:00:05.581Z,8.70
2023-12-10T09:02:32.741Z,8.70
2023-12-10T09:04:59.572Z,8.70
2023-12-10T09:07:27.390Z,8.70
2023-12-10T09:10:01.976Z,8.80
2023-12-10T09:12:33.198Z,8.80
2023-12-10T09:15:00.209Z,8.80
2023-12-10T09:17:27.070Z,8.90
2023-12-10T09:19:53.873Z,8.90
2023-12-10T09:22:22.318Z,8.90
2023-12-10T09:24:50.540Z,9.00
2023-12-10T09:27:17.485Z,9.00
2023-12-10T09:29:45.874Z,9.00
2023-12-10T09:32:13.918Z,9.10
2023-12-10T09:34:41.731Z,9.10
2023-12-10T09:37:11.752Z,9.10
2023-12-10T09:39:38.880Z,9.10
2023-12-10T09:42:05.841Z,9.10
2023-12-10T09:44:33.166Z,9.10
2023-12-10T09:47:01.690Z,9.10
2023-12-10T09:49:29.380Z,9.10
2023-12-10T09:51:56.473Z,9.00
2023-12-10T09:54:27.478Z,9.10
2023-12-10T09:56:55.725Z,9.10
2023-12-10T09:59:22.513Z,9.20
2023-12-10T10:01:51.206Z,9.20
2023-12-10T10:04:18.706Z,9.30
2023-12-10T10:06:45.743Z,9.40
2023-12-10T10:09:21.223Z,9.40
2023-12-10T10:11:56.002Z,9.50
2023-12-10T10:14:22.749Z,9.40
2023-12-10T10:16:50.165Z,9.40
2023-12-10T10:19:17.646Z,9.40
2023-12-10T10:21:45.438Z,9.50
2023-12-10T10:24:14.148Z,9.40
2023-12-10T10:26:41.889Z,9.50
2023-12-10T10:29:09.270Z,9.60
2023-12-10T10:31:36.406Z,9.60
2023-12-10T10:34:07.305Z,9.70
2023-12-10T10:36:34.348Z,9.70
2023-12-10T10:39:01.137Z,9.70
2023-12-10T10:41:28.225Z,9.90
2023-12-10T10:43:57.503Z,10.00
2023-12-10T10:46:25.447Z,10.00
2023-12-10T10:48:54.127Z,10.00
2023-12-10T10:51:27.536Z,9.90
2023-12-10T10:53:59.348Z,10.00
2023-12-10T10:56:26.913Z,9.90
2023-12-10T10:58:53.682Z,10.00
2023-12-10T11:01:40.531Z,10.00
2023-12-10T11:04:09.365Z,10.00
2023-12-10T11:06:37.289Z,10.00
2023-12-10T11:09:04.137Z,10.10
2023-12-10T11:11:39.155Z,10.10
2023-12-10T11:14:23.412Z,10.10
2023-12-10T11:17:02.718Z,10.00
2023-12-10T11:19:30.210Z,9.90
2023-12-10T11:21:57.991Z,9.90
2023-12-10T11:24:24.832Z,9.90
2023-12-10T11:26:51.796Z,9.80
2023-12-10T11:29:18.658Z,9.80
2023-12-10T11:31:45.916Z,9.90
2023-12-10T11:34:13.189Z,9.90
2023-12-10T11:36:46.907Z,9.90
2023-12-10T11:39:17.406Z,9.90
2023-12-10T11:41:55.638Z,9.90
2023-12-10T11:44:28.206Z,9.90
2023-12-10T11:46:58.045Z,9.90
2023-12-10T11:49:25.750Z,9.90
2023-12-10T11:51:53.215Z,9.90
2023-12-10T11:54:21.537Z,9.90
2023-12-10T11:56:48.452Z,9.90
2023-12-10T11:59:16.972Z,9.90
2023-12-10T12:01:47.123Z,10.00
2023-12-10T12:04:14.099Z,10.10
2023-12-10T12:06:42.753Z,10.10
2023-12-10T12:09:16.078Z,10.20
2023-12-10T12:11:42.890Z,10.40
2023-12-10T12:14:20.227Z,10.50
2023-12-10T12:16:47.881Z,10.60
2023-12-10T12:19:28.157Z,10.70
2023-12-10T12:21:58.773Z,10.70
2023-12-10T12:24:25.700Z,10.70
2023-12-10T12:26:52.963Z,10.70
2023-12-10T12:29:19.708Z,10.70
2023-12-10T12:32:04.778Z,10.70
2023-12-10T12:34:33.216Z,10.70
2023-12-10T12:37:00.123Z,10.60
2023-12-10T12:39:26.982Z,10.60
2023-12-10T12:41:53.850Z,10.60
2023-12-10T12:44:20.631Z,10.50
2023-12-10T12:46:48.481Z,10.40
2023-12-10T12:49:16.384Z,10.40
2023-12-10T12:51:43.233Z,10.40
2023-12-10T12:54:13.614Z,10.40
2023-12-10T12:56:45.474Z,10.40
2023-12-10T12:59:14.438Z,10.40
2023-12-10T13:01:42.818Z,10.40
2023-12-10T13:04:09.905Z,10.50
2023-12-10T13:06:37.070Z,10.50
2023-12-10T13:09:03.965Z,10.50
2023-12-10T13:11:30.709Z,10.50
2023-12-10T13:13:57.456Z,10.50
2023-12-10T13:16:24.184Z,10.50
2023-12-10T13:18:51.070Z,10.50
2023-12-10T13:21:18.720Z,10.50
2023-12-10T13:23:46.526Z,10.40
2023-12-10T13:26:13.333Z,10.30
2023-12-10T13:28:40.079Z,10.20
2023-12-10T13:31:06.890Z,10.20
2023-12-10T13:33:34.366Z,10.20
2023-12-10T13:36:01.326Z,10.20
2023-12-10T13:38:28.085Z,10.10
2023-12-10T13:40:57.279Z,10.10
2023-12-10T13:43:24.189Z,10.10
2023-12-10T13:45:50.947Z,10.10
2023-12-10T13:48:17.744Z,10.10
2023-12-10T13:50:44.553Z,10.10
2023-12-10T13:53:11.290Z,10.10
2023-12-10T13:55:38.057Z,10.10
2023-12-10T13:58:04.947Z,10.10
2023-12-10T14:00:32.454Z,10.10
2023-12-10T14:02:59.283Z,10.10
2023-12-10T14:05:26.095Z,10.10
2023-12-10T14:07:52.996Z,10.10
2023-12-10T14:10:19.972Z,10.10
2023-12-10T14:12:47.266Z,10.10
2023-12-10T14:15:14.339Z,10.10
2023-12-10T14:17:41.235Z,10.00
2023-12-10T14:20:08.533Z,10.00
2023-12-10T14:22:35.364Z,10.00
2023-12-10T14:25:02.437Z,9.90
2023-12-10T14:27:29.555Z,9.80
2023-12-10T14:29:56.721Z,9.80
2023-12-10T14:32:23.518Z,9.70
2023-12-10T14:34:50.362Z,9.70
2023-12-10T14:37:17.091Z,9.70
2023-12-10T14:39:43.878Z,9.70
2023-12-10T14:42:10.724Z,9.70
2023-12-10T14:44:37.539Z,9.70
2023-12-10T14:47:04.452Z,9.70
2023-12-10T14:49:31.563Z,9.60
2023-12-10T14:51:58.435Z,9.60
2023-12-10T14:54:26.057Z,9.60
2023-12-10T14:56:53.074Z,9.50
2023-12-10T14:59:20.287Z,9.50
2023-12-10T15:01:58.739Z,9.60
2023-12-10T15:04:33.123Z,9.60
2023-12-10T15:07:00.049Z,9.50
2023-12-10T15:09:27.042Z,9.50
2023-12-10T15:11:53.860Z,9.50
2023-12-10T15:14:20.598Z,9.50
2023-12-10T15:16:47.342Z,9.50
2023-12-10T15:19:14.416Z,9.50
2023-12-10T15:21:41.324Z,9.50
2023-12-10T15:24:08.084Z,9.50
2023-12-10T15:26:34.864Z,9.50
2023-12-10T15:29:02.210Z,9.50
2023-12-10T15:31:29.058Z,9.50
2023-12-10T15:33:55.932Z,9.50
2023-12-10T15:36:23.285Z,9.40
2023-12-10T15:38:50.182Z,9.50
2023-12-10T15:41:17.175Z,9.50
2023-12-10T15:43:44.205Z,9.40
2023-12-10T15:46:11.158Z,9.40
2023-12-10T15:48:38.210Z,9.40
2023-12-10T15:51:05.326Z,9.40
2023-12-10T15:53:32.305Z,9.30
2023-12-10T15:55:59.009Z,9.30
2023-12-10T15:58:25.775Z,9.40
2023-12-10T16:00:54.615Z,9.30
2023-12-10T16:03:23.552Z,9.30
2023-12-10T16:05:51.371Z,9.40
2023-12-10T16:08:19.103Z,9.30
2023-12-10T16:10:46.690Z,9.40
2023-12-10T16:13:18.067Z,9.40
2023-12-10T16:15:47.254Z,9.40
2023-12-10T16:18:14.098Z,9.40
2023-12-10T16:20:41.398Z,9.30
2023-12-10T16:23:08.237Z,9.30
2023-12-10T16:25:35.627Z,9.30
2023-12-10T16:28:02.927Z,9.30
2023-12-10T16:30:29.869Z,9.30
2023-12-10T16:32:56.752Z,9.40
2023-12-10T16:35:23.604Z,9.30
2023-12-10T16:37:50.416Z,9.30
2023-12-10T16:40:17.378Z,9.30
2023-12-10T16:42:44.284Z,9.30
2023-12-10T16:45:11.257Z,9.40
2023-12-10T16:47:38.824Z,9.30
2023-12-10T16:50:08.460Z,9.30
2023-12-10T16:52:40.601Z,9.30
2023-12-10T16:55:10.956Z,9.30
2023-12-10T16:57:39.466Z,9.30
2023-12-10T17:00:06.859Z,9.30
2023-12-10T17:02:33.572Z,9.30
2023-12-10T17:05:02.474Z,9.20
2023-12-10T17:07:29.688Z,9.20
2023-12-10T17:09:56.691Z,9.20
2023-12-10T17:12:23.545Z,9.20
2023-12-10T17:14:50.404Z,9.20
2023-12-10T17:17:17.297Z,9.20
2023-12-10T17:19:44.106Z,9.10
2023-12-10T17:22:11.373Z,9.10
2023-12-10T17:24:38.546Z,9.10
2023-12-10T17:27:05.537Z,9.10
2023-12-10T17:29:32.305Z,9.10
2023-12-10T17:31:59.038Z,9.10
2023-12-10T17:34:25.873Z,9.10
2023-12-10T17:36:52.712Z,9.10
2023-12-10T17:39:19.450Z,9.10
2023-12-10T17:41:46.185Z,9.00
2023-12-10T17:44:12.944Z,9.00
2023-12-10T17:46:39.732Z,9.10
2023-12-10T17:49:07.155Z,9.10
2023-12-10T17:51:34.164Z,9.10
2023-12-10T17:54:00.964Z,9.00
2023-12-10T17:56:27.713Z,9.00
2023-12-10T17:58:54.796Z,8.90
2023-12-10T18:01:21.922Z,9.00
2023-12-10T18:03:48.929Z,9.00
2023-12-10T18:06:15.816Z,8.90
2023-12-10T18:08:42.561Z,8.90
2023-12-10T18:11:09.338Z,8.90
2023-12-10T18:13:37.922Z,8.90
2023-12-10T18:16:06.108Z,8.90
2023-12-10T18:18:33.051Z,8.90
2023-12-10T18:21:01.671Z,8.90
2023-12-10T18:23:28.449Z,8.80
2023-12-10T18:25:55.160Z,8.80
2023-12-10T18:28:21.954Z,8.80
2023-12-10T18:30:48.706Z,8.80
2023-12-10T18:33:16.214Z,8.80
2023-12-10T18:35:43.049Z,8.80
2023-12-10T18:38:09.829Z,8.80
2023-12-10T18:40:36.591Z,8.80
2023-12-10T18:43:06.079Z,8.80
2023-12-10T18:45:34.339Z,8.80
2023-12-10T18:48:01.239Z,8.80
2023-12-10T18:50:28.124Z,8.70
2023-12-10T18:52:54.950Z,8.70
2023-12-10T18:55:22.032Z,8.70
2023-12-10T18:57:48.772Z,8.60
2023-12-10T19:00:16.114Z,8.60
2023-12-10T19:02:42.957Z,8.60
2023-12-10T19:05:09.866Z,8.60
2023-12-10T19:07:36.708Z,8.50
2023-12-10T19:10:03.656Z,8.50
2023-12-10T19:12:30.965Z,8.50
2023-12-10T19:14:57.954Z,8.50
2023-12-10T19:17:24.805Z,8.50
2023-12-10T19:19:51.757Z,8.50
2023-12-10T19:22:18.511Z,8.50
2023-12-10T19:24:45.633Z,8.50
2023-12-10T19:27:12.692Z,8.50
2023-12-10T19:29:39.502Z,8.40
2023-12-10T19:32:07.973Z,8.40
2023-12-10T19:34:35.645Z,8.40
2023-12-10T19:37:02.586Z,8.40
2023-12-10T19:39:29.388Z,8.30
2023-12-10T19:41:56.292Z,8.30
2023-12-10T19:44:23.065Z,8.30
2023-12-10T19:46:49.987Z,8.30
2023-12-10T19:49:17.856Z,8.30
2023-12-10T19:51:44.779Z,8.30
2023-12-10T19:54:11.643Z,8.20
2023-12-10T19:56:38.433Z,8.20
2023-12-10T19:59:05.225Z,8.30
2023-12-10T20:01:32.041Z,8.20
2023-12-10T20:04:00.622Z,8.30
2023-12-10T20:06:27.417Z,8.30
2023-12-10T20:08:54.311Z,8.30
2023-12-10T20:11:21.021Z,8.30
2023-12-10T20:13:48.388Z,8.40
2023-12-10T20:16:17.695Z,8.40
2023-12-10T20:18:45.424Z,8.40
2023-12-10T20:21:12.259Z,8.40
2023-12-10T20:23:38.947Z,8.40
2023-12-10T20:26:05.785Z,8.50
2023-12-10T20:28:32.540Z,8.40
2023-12-10T20:30:59.299Z,8.40
2023-12-10T20:33:27.266Z,8.40
2023-12-10T20:35:54.201Z,8.40
2023-12-10T20:38:21.075Z,8.40
2023-12-10T20:40:49.930Z,8.40
2023-12-10T20:43:18.210Z,8.50
2023-12-10T20:45:46.181Z,8.50
2023-12-10T20:48:13.324Z,8.50
2023-12-10T20:50:40.157Z,8.50
2023-12-10T20:53:06.963Z,8.50
2023-12-10T20:55:33.744Z,8.60
2023-12-10T20:58:00.665Z,8.50
2023-12-10T21:00:27.604Z,8.50
2023-12-10T21:02:54.447Z,8.50
2023-12-10T21:05:22.966Z,8.50
2023-12-10T21:07:49.974Z,8.50
2023-12-10T21:10:16.976Z,8.50
2023-12-10T21:12:43.920Z,8.50
2023-12-10T21:15:11.040Z,8.50
2023-12-10T21:17:38.889Z,8.50
2023-12-10T21:20:07.537Z,8.50
2023-12-10T21:22:34.321Z,8.50
2023-12-10T21:25:01.492Z,8.50
2023-12-10T21:27:28.553Z,8.60
2023-12-10T21:29:55.508Z,8.60
2023-12-10T21:32:22.244Z,8.60
2023-12-10T21:34:49.538Z,8.60
2023-12-10T21:37:16.832Z,8.60
2023-12-10T21:39:43.697Z,8.50
2023-12-10T21:42:12.149Z,8.50
2023-12-10T21:44:41.698Z,8.50
2023-12-10T21:47:08.473Z,8.50
2023-12-10T21:49:39.273Z,8.50
2023-12-10T21:52:06.748Z,8.50
2023-12-10T21:54:33.801Z,8.60
2023-12-10T21:57:01.159Z,8.50
2023-12-10T21:59:28.100Z,8.50
2023-12-10T22:01:55.360Z,8.60
2023-12-10T22:04:22.371Z,8.60
2023-12-10T22:06:49.218Z,8.60
2023-12-10T22:09:15.933Z,8.60
2023-12-10T22:11:42.696Z,8.60
2023-12-10T22:14:09.402Z,8.60
2023-12-10T22:16:37.055Z,8.60
2023-12-10T22:19:04.607Z,8.60
2023-12-10T22:21:31.448Z,8.60
2023-12-10T22:23:58.806Z,8.70
2023-12-10T22:26:25.534Z,8.70
2023-12-10T22:28:52.387Z,8.70
2023-12-10T22:31:19.174Z,8.70
2023-12-10T22:33:46.049Z,8.70
2023-12-10T22:36:12.873Z,8.70
2023-12-10T22:38:43.432Z,8.70
2023-12-10T22:41:10.435Z,8.70
2023-12-10T22:43:37.257Z,8.70
2023-12-10T22:46:04.256Z,8.70
2023-12-10T22:48:31.110Z,8.70
2023-12-10T22:50:58.101Z,8.70
2023-12-10T22:53:25.018Z,8.70
2023-12-10T22:55:52.237Z,8.70
2023-12-10T22:58:19.077Z,8.70
2023-12-10T23:00:45.898Z,8.70
2023-12-10T23:03:12.797Z,8.70
2023-12-10T23:05:39.550Z,8.70
2023-12-10T23:08:06.432Z,8.80
2023-12-10T23:10:33.221Z,8.70
2023-12-10T23:12:59.996Z,8.80
2023-12-10T23:15:30.731Z,8.80
2023-12-10T23:17:57.547Z,8.80
2023-12-10T23:20:24.361Z,8.80
2023-12-10T23:22:51.126Z,8.80
2023-12-10T23:25:18.048Z,8.80
2023-12-10T23:27:44.926Z,8.90
2023-12-10T23:30:12.072Z,8.90
2023-12-10T23:32:38.892Z,9.00
2023-12-10T23:35:05.999Z,8.90
2023-12-10T23:37:32.850Z,8.90
2023-12-10T23:39:59.966Z,8.90
2023-12-10T23:42:26.781Z,8.90
2023-12-10T23:44:53.911Z,8.90
2023-12-10T23:47:20.659Z,8.90
2023-12-10T23:49:47.445Z,8.90
2023-12-10T23:52:14.234Z,9.00
2023-12-10T23:54:41.111Z,9.00
2023-12-10T23:57:08.694Z,9.00
2023-12-10T23:59:35.795Z,9.10
